Friday, July 20, 2018, 11:43 AM CDT
Back to Local

KFNB, Falls City Brenner Fld Airport

Location: Falls City, NE, United States Lat: 40.083
Local Time: 11:43 AM CDT (16:43 GMT) Lon: -95.583
Time Zone: US/Central Elev: 984 ft

Show me the last for .
Show Decoded

2018-07-20 10:53 METAR KFNB 201553Z AUTO 36005KT 10SM CLR 28/17 A2990 RMK AO2 SLP115 T02780167 =
2018-07-20 09:53 METAR KFNB 201453Z AUTO 35007KT 10SM CLR 26/17 A2991 RMK AO2 SLP118 T02560167
                 51010 =
2018-07-20 08:53 METAR KFNB 201353Z AUTO 33006KT 10SM CLR 23/17 A2991 RMK AO2 SLP117 T02330167 =
2018-07-20 07:53 METAR KFNB 201253Z AUTO 30004KT 10SM CLR 22/17 A2989 RMK AO2 SLP112 T02220172 =
2018-07-20 06:53 METAR KFNB 201153Z AUTO 26005KT 10SM CLR 20/17 A2988 RMK AO2 SLP108 T02000167
                 10222 20183 51007 =
2018-07-20 05:53 METAR KFNB 201053Z AUTO 27004KT 10SM CLR 19/16 A2987 RMK AO2 SLP106 T01940161 =
2018-07-20 04:53 METAR KFNB 200953Z AUTO 25003KT 10SM CLR 19/17 A2987 RMK AO2 SLP103 T01940167 =
2018-07-20 03:53 METAR KFNB 200853Z AUTO 29003KT 10SM CLR 20/18 A2986 RMK AO2 SLP100 T02000183
                 50007 =
2018-07-20 02:53 METAR KFNB 200753Z AUTO 00000KT 10SM CLR 20/18 A2986 RMK AO2 SLP100 T02000183 =
2018-07-20 01:53 METAR KFNB 200653Z AUTO 29004KT 10SM CLR 21/19 A2984 RMK AO2 SLP095 T02110194 =
2018-07-20 00:53 METAR KFNB 200553Z AUTO 00000KT 10SM CLR 22/19 A2984 RMK AO2 SLP093 T02170194
                 10322 20211 403440211 51005 =
2018-07-19 23:53 METAR KFNB 200453Z AUTO 26005KT 10SM CLR 23/19 A2984 RMK AO2 SLP092 T02280194 =
2018-07-19 22:53 METAR KFNB 200353Z AUTO 29003KT 10SM CLR 24/20 A2984 RMK AO2 SLP093 T02390200 =
2018-07-19 21:53 METAR KFNB 200253Z AUTO 30005KT 10SM CLR 25/20 A2982 RMK AO2 SLP087 T02500200
                 53013 =
2018-07-19 20:53 METAR KFNB 200153Z AUTO 29006KT 10SM CLR 27/21 A2981 RMK AO2 SLP082 T02670206 =
2018-07-19 19:53 METAR KFNB 200053Z AUTO 30004KT 10SM CLR 30/20 A2979 RMK AO2 SLP077 T03000200 =
2018-07-19 18:53 METAR KFNB 192353Z AUTO 31007KT 10SM CLR 32/21 A2978 RMK AO2 SLP074 T03220206
                 10344 20322 55008 =
2018-07-19 17:53 METAR KFNB 192253Z AUTO 27008KT 10SM CLR 33/22 A2978 RMK AO2 SLP073 T03280217 =
2018-07-19 16:53 METAR KFNB 192153Z AUTO 30010KT 10SM CLR 33/18 A2979 RMK AO2 SLP076 T03330183 =
2018-07-19 15:53 METAR KFNB 192053Z AUTO 28011KT 10SM CLR 33/19 A2981 RMK AO2 SLP083 T03280194
                 53000 =
2018-07-19 14:53 METAR KFNB 191953Z AUTO 28011KT 10SM CLR 34/21 A2981 RMK AO2 SLP082 T03440211 =
2018-07-19 13:53 METAR KFNB 191853Z AUTO 29011KT 10SM CLR 33/21 A2980 RMK AO2 SLP080 T03330211 =
2018-07-19 12:53 METAR KFNB 191753Z AUTO 31010KT 10SM CLR 33/23 A2981 RMK AO2 SLP082 T03280233
                 10333 20217 57003 =
2018-07-19 11:53 METAR KFNB 191653Z AUTO 29016KT 10SM CLR 32/24 A2981 RMK AO2 SLP085 T03220239 =

Support USWX by starting your Amazon purchase here.